sensor_id;sensor_type;location;lat;lon;timestamp;P1;durP1;ratioP1;P2;durP2;ratioP2
75639;SDS011;64233;51.486;6.332;2023-04-26T00:00:54;5.28;;;3.35;;
75639;SDS011;64233;51.486;6.332;2023-04-26T00:03:25;5.45;;;2.95;;
75639;SDS011;64233;51.486;6.332;2023-04-26T00:05:51;7.20;;;3.38;;
75639;SDS011;64233;51.486;6.332;2023-04-26T00:08:16;7.35;;;3.15;;
75639;SDS011;64233;51.486;6.332;2023-04-26T00:10:41;4.32;;;3.13;;
75639;SDS011;64233;51.486;6.332;2023-04-26T00:13:07;6.10;;;3.22;;
75639;SDS011;64233;51.486;6.332;2023-04-26T00:15:32;7.28;;;3.72;;
75639;SDS011;64233;51.486;6.332;2023-04-26T00:17:57;5.82;;;3.78;;
75639;SDS011;64233;51.486;6.332;2023-04-26T00:20:22;4.40;;;3.05;;
75639;SDS011;64233;51.486;6.332;2023-04-26T00:22:48;8.88;;;4.07;;
75639;SDS011;64233;51.486;6.332;2023-04-26T00:25:14;8.93;;;4.50;;
75639;SDS011;64233;51.486;6.332;2023-04-26T00:27:39;6.80;;;4.10;;
75639;SDS011;64233;51.486;6.332;2023-04-26T00:30:04;8.68;;;3.60;;
75639;SDS011;64233;51.486;6.332;2023-04-26T00:32:30;10.82;;;3.92;;
75639;SDS011;64233;51.486;6.332;2023-04-26T00:34:55;6.65;;;4.00;;
75639;SDS011;64233;51.486;6.332;2023-04-26T00:37:21;8.75;;;3.90;;
75639;SDS011;64233;51.486;6.332;2023-04-26T00:39:47;8.05;;;3.58;;
75639;SDS011;64233;51.486;6.332;2023-04-26T00:42:12;6.28;;;3.10;;
75639;SDS011;64233;51.486;6.332;2023-04-26T00:44:37;7.93;;;4.57;;
75639;SDS011;64233;51.486;6.332;2023-04-26T00:47:04;4.38;;;3.28;;
75639;SDS011;64233;51.486;6.332;2023-04-26T00:49:30;10.13;;;4.05;;
75639;SDS011;64233;51.486;6.332;2023-04-26T00:51:55;8.32;;;4.15;;
75639;SDS011;64233;51.486;6.332;2023-04-26T00:54:21;6.50;;;4.15;;
75639;SDS011;64233;51.486;6.332;2023-04-26T00:56:48;5.95;;;3.78;;
75639;SDS011;64233;51.486;6.332;2023-04-26T00:59:16;9.65;;;4.00;;
75639;SDS011;64233;51.486;6.332;2023-04-26T01:01:41;4.38;;;3.28;;
75639;SDS011;64233;51.486;6.332;2023-04-26T01:04:06;9.88;;;3.85;;
75639;SDS011;64233;51.486;6.332;2023-04-26T01:06:33;5.50;;;3.30;;
75639;SDS011;64233;51.486;6.332;2023-04-26T01:09:02;5.20;;;3.72;;
75639;SDS011;64233;51.486;6.332;2023-04-26T01:11:36;4.35;;;3.03;;
75639;SDS011;64233;51.486;6.332;2023-04-26T01:14:02;12.73;;;4.10;;
75639;SDS011;64233;51.486;6.332;2023-04-26T01:16:28;15.05;;;3.70;;
75639;SDS011;64233;51.486;6.332;2023-04-26T01:18:54;4.82;;;3.13;;
75639;SDS011;64233;51.486;6.332;2023-04-26T01:21:21;6.57;;;3.40;;
75639;SDS011;64233;51.486;6.332;2023-04-26T01:23:47;6.53;;;3.85;;
75639;SDS011;64233;51.486;6.332;2023-04-26T01:26:13;11.07;;;3.70;;
75639;SDS011;64233;51.486;6.332;2023-04-26T01:28:39;10.27;;;3.88;;
75639;SDS011;64233;51.486;6.332;2023-04-26T01:31:05;10.05;;;3.70;;
75639;SDS011;64233;51.486;6.332;2023-04-26T01:33:31;4.13;;;3.05;;
75639;SDS011;64233;51.486;6.332;2023-04-26T01:35:56;6.68;;;3.88;;
75639;SDS011;64233;51.486;6.332;2023-04-26T01:38:21;5.22;;;3.25;;
75639;SDS011;64233;51.486;6.332;2023-04-26T01:40:47;9.98;;;4.63;;
75639;SDS011;64233;51.486;6.332;2023-04-26T01:43:12;10.93;;;4.10;;
75639;SDS011;64233;51.486;6.332;2023-04-26T01:45:39;5.15;;;3.03;;
75639;SDS011;64233;51.486;6.332;2023-04-26T01:48:05;6.80;;;3.40;;
75639;SDS011;64233;51.486;6.332;2023-04-26T01:50:31;9.18;;;3.40;;
75639;SDS011;64233;51.486;6.332;2023-04-26T01:52:56;5.18;;;3.70;;
75639;SDS011;64233;51.486;6.332;2023-04-26T01:55:21;5.88;;;3.67;;
75639;SDS011;64233;51.486;6.332;2023-04-26T01:57:46;8.93;;;3.83;;
75639;SDS011;64233;51.486;6.332;2023-04-26T02:00:12;8.75;;;3.30;;
75639;SDS011;64233;51.486;6.332;2023-04-26T02:02:38;7.50;;;3.45;;
75639;SDS011;64233;51.486;6.332;2023-04-26T02:05:03;11.00;;;4.47;;
75639;SDS011;64233;51.486;6.332;2023-04-26T02:07:28;9.73;;;3.85;;
75639;SDS011;64233;51.486;6.332;2023-04-26T02:09:54;7.88;;;3.90;;
75639;SDS011;64233;51.486;6.332;2023-04-26T02:12:19;7.20;;;4.45;;
75639;SDS011;64233;51.486;6.332;2023-04-26T02:14:44;7.25;;;3.97;;
75639;SDS011;64233;51.486;6.332;2023-04-26T02:17:10;5.18;;;3.88;;
75639;SDS011;64233;51.486;6.332;2023-04-26T02:19:35;6.32;;;3.22;;
75639;SDS011;64233;51.486;6.332;2023-04-26T02:22:00;7.63;;;3.97;;
75639;SDS011;64233;51.486;6.332;2023-04-26T02:24:26;6.47;;;3.22;;
75639;SDS011;64233;51.486;6.332;2023-04-26T02:26:51;6.78;;;3.53;;
75639;SDS011;64233;51.486;6.332;2023-04-26T02:29:18;8.43;;;4.40;;
75639;SDS011;64233;51.486;6.332;2023-04-26T02:31:43;8.18;;;4.50;;
75639;SDS011;64233;51.486;6.332;2023-04-26T02:34:09;8.25;;;3.95;;
75639;SDS011;64233;51.486;6.332;2023-04-26T02:36:34;9.80;;;4.85;;
75639;SDS011;64233;51.486;6.332;2023-04-26T02:38:59;11.05;;;4.43;;
75639;SDS011;64233;51.486;6.332;2023-04-26T02:41:25;8.75;;;3.95;;
75639;SDS011;64233;51.486;6.332;2023-04-26T02:43:50;17.38;;;4.38;;
75639;SDS011;64233;51.486;6.332;2023-04-26T02:46:16;12.07;;;5.55;;
75639;SDS011;64233;51.486;6.332;2023-04-26T02:48:41;7.97;;;4.28;;
75639;SDS011;64233;51.486;6.332;2023-04-26T02:51:06;8.25;;;4.50;;
75639;SDS011;64233;51.486;6.332;2023-04-26T02:53:32;7.78;;;4.55;;
75639;SDS011;64233;51.486;6.332;2023-04-26T02:55:57;9.02;;;4.93;;
75639;SDS011;64233;51.486;6.332;2023-04-26T02:58:24;9.32;;;5.03;;
75639;SDS011;64233;51.486;6.332;2023-04-26T03:00:50;9.32;;;4.75;;
75639;SDS011;64233;51.486;6.332;2023-04-26T03:03:15;9.40;;;4.80;;
75639;SDS011;64233;51.486;6.332;2023-04-26T03:05:40;13.05;;;5.13;;
75639;SDS011;64233;51.486;6.332;2023-04-26T03:08:06;8.77;;;5.60;;
75639;SDS011;64233;51.486;6.332;2023-04-26T03:10:31;9.98;;;4.70;;
75639;SDS011;64233;51.486;6.332;2023-04-26T03:12:57;10.90;;;5.07;;
75639;SDS011;64233;51.486;6.332;2023-04-26T03:15:22;9.63;;;5.25;;
75639;SDS011;64233;51.486;6.332;2023-04-26T03:17:47;9.85;;;4.75;;
75639;SDS011;64233;51.486;6.332;2023-04-26T03:20:13;9.65;;;4.85;;
75639;SDS011;64233;51.486;6.332;2023-04-26T03:22:38;10.35;;;6.05;;
75639;SDS011;64233;51.486;6.332;2023-04-26T03:25:04;9.98;;;5.70;;
75639;SDS011;64233;51.486;6.332;2023-04-26T03:27:30;21.48;;;5.13;;
75639;SDS011;64233;51.486;6.332;2023-04-26T03:29:55;7.85;;;4.75;;
75639;SDS011;64233;51.486;6.332;2023-04-26T03:32:21;12.32;;;6.28;;
75639;SDS011;64233;51.486;6.332;2023-04-26T03:34:46;10.55;;;4.97;;
75639;SDS011;64233;51.486;6.332;2023-04-26T03:37:12;9.45;;;4.93;;
75639;SDS011;64233;51.486;6.332;2023-04-26T03:39:38;11.70;;;5.35;;
75639;SDS011;64233;51.486;6.332;2023-04-26T03:42:03;9.27;;;5.10;;
75639;SDS011;64233;51.486;6.332;2023-04-26T03:44:29;13.45;;;6.60;;
75639;SDS011;64233;51.486;6.332;2023-04-26T03:46:54;12.18;;;5.85;;
75639;SDS011;64233;51.486;6.332;2023-04-26T03:49:20;13.02;;;5.50;;
75639;SDS011;64233;51.486;6.332;2023-04-26T03:51:45;10.13;;;5.68;;
75639;SDS011;64233;51.486;6.332;2023-04-26T03:54:11;9.63;;;5.22;;
75639;SDS011;64233;51.486;6.332;2023-04-26T03:56:36;9.15;;;4.63;;
75639;SDS011;64233;51.486;6.332;2023-04-26T03:59:02;14.75;;;5.05;;
75639;SDS011;64233;51.486;6.332;2023-04-26T04:01:28;8.70;;;5.47;;
75639;SDS011;64233;51.486;6.332;2023-04-26T04:03:53;9.07;;;5.07;;
75639;SDS011;64233;51.486;6.332;2023-04-26T04:06:18;10.90;;;5.25;;
75639;SDS011;64233;51.486;6.332;2023-04-26T04:08:43;17.05;;;6.05;;
75639;SDS011;64233;51.486;6.332;2023-04-26T04:11:09;8.98;;;4.80;;
75639;SDS011;64233;51.486;6.332;2023-04-26T04:13:34;11.80;;;6.03;;
75639;SDS011;64233;51.486;6.332;2023-04-26T04:15:59;11.05;;;5.75;;
75639;SDS011;64233;51.486;6.332;2023-04-26T04:18:25;13.07;;;6.28;;
75639;SDS011;64233;51.486;6.332;2023-04-26T04:20:50;15.00;;;5.03;;
75639;SDS011;64233;51.486;6.332;2023-04-26T04:23:15;9.25;;;5.80;;
75639;SDS011;64233;51.486;6.332;2023-04-26T04:25:41;15.75;;;5.57;;
75639;SDS011;64233;51.486;6.332;2023-04-26T04:28:10;11.30;;;5.60;;
75639;SDS011;64233;51.486;6.332;2023-04-26T04:30:36;11.15;;;5.40;;
75639;SDS011;64233;51.486;6.332;2023-04-26T04:33:01;10.15;;;5.28;;
75639;SDS011;64233;51.486;6.332;2023-04-26T04:35:28;13.45;;;5.35;;
75639;SDS011;64233;51.486;6.332;2023-04-26T04:37:57;10.82;;;5.50;;
75639;SDS011;64233;51.486;6.332;2023-04-26T04:40:23;14.90;;;6.93;;
75639;SDS011;64233;51.486;6.332;2023-04-26T04:42:48;13.38;;;6.32;;
75639;SDS011;64233;51.486;6.332;2023-04-26T04:45:14;12.15;;;5.70;;
75639;SDS011;64233;51.486;6.332;2023-04-26T04:47:41;11.77;;;5.72;;
75639;SDS011;64233;51.486;6.332;2023-04-26T04:50:06;12.15;;;5.70;;
75639;SDS011;64233;51.486;6.332;2023-04-26T04:52:32;11.10;;;6.05;;
75639;SDS011;64233;51.486;6.332;2023-04-26T04:54:58;10.50;;;5.85;;
75639;SDS011;64233;51.486;6.332;2023-04-26T04:57:24;10.15;;;5.15;;
75639;SDS011;64233;51.486;6.332;2023-04-26T04:59:49;12.52;;;5.93;;
75639;SDS011;64233;51.486;6.332;2023-04-26T05:02:15;17.50;;;6.63;;
75639;SDS011;64233;51.486;6.332;2023-04-26T05:04:40;10.52;;;5.82;;
75639;SDS011;64233;51.486;6.332;2023-04-26T05:07:06;10.93;;;5.78;;
75639;SDS011;64233;51.486;6.332;2023-04-26T05:09:31;9.80;;;5.35;;
75639;SDS011;64233;51.486;6.332;2023-04-26T05:11:56;10.32;;;5.80;;
75639;SDS011;64233;51.486;6.332;2023-04-26T05:14:22;15.02;;;5.97;;
75639;SDS011;64233;51.486;6.332;2023-04-26T05:16:47;14.85;;;5.43;;
75639;SDS011;64233;51.486;6.332;2023-04-26T05:19:12;13.35;;;5.60;;
75639;SDS011;64233;51.486;6.332;2023-04-26T05:21:38;12.25;;;6.40;;
75639;SDS011;64233;51.486;6.332;2023-04-26T05:24:03;12.35;;;5.47;;
75639;SDS011;64233;51.486;6.332;2023-04-26T05:26:28;11.10;;;5.05;;
75639;SDS011;64233;51.486;6.332;2023-04-26T05:28:54;12.32;;;6.53;;
75639;SDS011;64233;51.486;6.332;2023-04-26T05:31:19;10.88;;;5.50;;
75639;SDS011;64233;51.486;6.332;2023-04-26T05:33:45;14.65;;;5.72;;
75639;SDS011;64233;51.486;6.332;2023-04-26T05:36:10;11.48;;;6.05;;
75639;SDS011;64233;51.486;6.332;2023-04-26T05:38:36;12.20;;;5.72;;
75639;SDS011;64233;51.486;6.332;2023-04-26T05:41:02;11.35;;;5.85;;
75639;SDS011;64233;51.486;6.332;2023-04-26T05:43:27;13.68;;;5.95;;
75639;SDS011;64233;51.486;6.332;2023-04-26T05:45:53;10.02;;;5.82;;
75639;SDS011;64233;51.486;6.332;2023-04-26T05:48:20;17.02;;;6.00;;
75639;SDS011;64233;51.486;6.332;2023-04-26T05:50:46;14.15;;;6.65;;
75639;SDS011;64233;51.486;6.332;2023-04-26T05:53:11;12.60;;;5.88;;
75639;SDS011;64233;51.486;6.332;2023-04-26T05:55:37;14.32;;;6.30;;
75639;SDS011;64233;51.486;6.332;2023-04-26T05:58:02;14.93;;;6.40;;
75639;SDS011;64233;51.486;6.332;2023-04-26T06:00:29;13.15;;;5.25;;
75639;SDS011;64233;51.486;6.332;2023-04-26T06:02:54;9.55;;;5.30;;
75639;SDS011;64233;51.486;6.332;2023-04-26T06:05:20;15.00;;;5.63;;
75639;SDS011;64233;51.486;6.332;2023-04-26T06:07:46;10.75;;;5.05;;
75639;SDS011;64233;51.486;6.332;2023-04-26T06:10:11;12.75;;;6.43;;
75639;SDS011;64233;51.486;6.332;2023-04-26T06:12:37;16.13;;;5.95;;
75639;SDS011;64233;51.486;6.332;2023-04-26T06:15:03;9.65;;;5.40;;
75639;SDS011;64233;51.486;6.332;2023-04-26T06:17:28;13.35;;;5.97;;
75639;SDS011;64233;51.486;6.332;2023-04-26T06:19:54;10.80;;;5.82;;
75639;SDS011;64233;51.486;6.332;2023-04-26T06:22:20;13.80;;;4.88;;
75639;SDS011;64233;51.486;6.332;2023-04-26T06:24:45;13.55;;;4.80;;
75639;SDS011;64233;51.486;6.332;2023-04-26T06:27:10;11.90;;;5.10;;
75639;SDS011;64233;51.486;6.332;2023-04-26T06:29:36;14.93;;;6.70;;
75639;SDS011;64233;51.486;6.332;2023-04-26T06:32:01;11.15;;;4.93;;
75639;SDS011;64233;51.486;6.332;2023-04-26T06:34:26;11.55;;;6.00;;
75639;SDS011;64233;51.486;6.332;2023-04-26T06:36:52;10.35;;;5.20;;
75639;SDS011;64233;51.486;6.332;2023-04-26T06:39:17;19.35;;;5.55;;
75639;SDS011;64233;51.486;6.332;2023-04-26T06:41:42;13.70;;;5.80;;
75639;SDS011;64233;51.486;6.332;2023-04-26T06:44:08;5.82;;;3.92;;
75639;SDS011;64233;51.486;6.332;2023-04-26T06:46:33;13.73;;;6.07;;
75639;SDS011;64233;51.486;6.332;2023-04-26T06:48:59;19.45;;;5.85;;
75639;SDS011;64233;51.486;6.332;2023-04-26T06:51:25;17.13;;;6.63;;
75639;SDS011;64233;51.486;6.332;2023-04-26T06:53:51;16.75;;;5.75;;
75639;SDS011;64233;51.486;6.332;2023-04-26T06:56:16;16.77;;;7.43;;
75639;SDS011;64233;51.486;6.332;2023-04-26T06:58:57;15.13;;;6.72;;
75639;SDS011;64233;51.486;6.332;2023-04-26T07:01:27;13.57;;;5.82;;
75639;SDS011;64233;51.486;6.332;2023-04-26T07:03:53;7.78;;;4.72;;
75639;SDS011;64233;51.486;6.332;2023-04-26T07:06:20;9.43;;;5.22;;
75639;SDS011;64233;51.486;6.332;2023-04-26T07:08:45;13.30;;;6.40;;
75639;SDS011;64233;51.486;6.332;2023-04-26T07:11:11;6.68;;;4.35;;
75639;SDS011;64233;51.486;6.332;2023-04-26T07:13:37;10.55;;;5.13;;
75639;SDS011;64233;51.486;6.332;2023-04-26T07:16:02;10.13;;;4.03;;
75639;SDS011;64233;51.486;6.332;2023-04-26T07:18:27;9.82;;;5.03;;
75639;SDS011;64233;51.486;6.332;2023-04-26T07:20:53;6.05;;;4.30;;
75639;SDS011;64233;51.486;6.332;2023-04-26T07:23:18;14.60;;;4.45;;
75639;SDS011;64233;51.486;6.332;2023-04-26T07:25:44;12.95;;;5.10;;
75639;SDS011;64233;51.486;6.332;2023-04-26T07:28:09;9.85;;;4.00;;
75639;SDS011;64233;51.486;6.332;2023-04-26T07:30:35;8.15;;;4.28;;
75639;SDS011;64233;51.486;6.332;2023-04-26T07:33:00;8.23;;;3.80;;
75639;SDS011;64233;51.486;6.332;2023-04-26T07:35:26;10.23;;;4.15;;
75639;SDS011;64233;51.486;6.332;2023-04-26T07:37:51;6.90;;;3.42;;
75639;SDS011;64233;51.486;6.332;2023-04-26T07:40:16;7.53;;;4.18;;
75639;SDS011;64233;51.486;6.332;2023-04-26T07:42:42;6.45;;;3.80;;
75639;SDS011;64233;51.486;6.332;2023-04-26T07:45:08;10.43;;;4.32;;
75639;SDS011;64233;51.486;6.332;2023-04-26T07:47:34;6.20;;;3.05;;
75639;SDS011;64233;51.486;6.332;2023-04-26T07:49:59;5.05;;;3.50;;
75639;SDS011;64233;51.486;6.332;2023-04-26T07:52:25;12.60;;;4.38;;
75639;SDS011;64233;51.486;6.332;2023-04-26T07:54:50;4.93;;;3.10;;
75639;SDS011;64233;51.486;6.332;2023-04-26T07:57:15;7.90;;;3.63;;
75639;SDS011;64233;51.486;6.332;2023-04-26T07:59:40;12.40;;;3.47;;
75639;SDS011;64233;51.486;6.332;2023-04-26T08:02:06;7.00;;;3.22;;
75639;SDS011;64233;51.486;6.332;2023-04-26T08:04:31;6.18;;;3.22;;
75639;SDS011;64233;51.486;6.332;2023-04-26T08:06:58;5.25;;;3.28;;
75639;SDS011;64233;51.486;6.332;2023-04-26T08:09:25;10.52;;;3.97;;
75639;SDS011;64233;51.486;6.332;2023-04-26T08:11:51;5.70;;;3.05;;
75639;SDS011;64233;51.486;6.332;2023-04-26T08:14:17;6.63;;;3.45;;
75639;SDS011;64233;51.486;6.332;2023-04-26T08:16:42;6.57;;;2.65;;
75639;SDS011;64233;51.486;6.332;2023-04-26T08:19:08;8.38;;;2.72;;
75639;SDS011;64233;51.486;6.332;2023-04-26T08:21:33;6.38;;;2.72;;
75639;SDS011;64233;51.486;6.332;2023-04-26T08:23:58;4.05;;;1.90;;
75639;SDS011;64233;51.486;6.332;2023-04-26T08:26:24;6.20;;;2.95;;
75639;SDS011;64233;51.486;6.332;2023-04-26T08:28:49;3.45;;;2.13;;
75639;SDS011;64233;51.486;6.332;2023-04-26T08:31:15;7.05;;;2.83;;
75639;SDS011;64233;51.486;6.332;2023-04-26T08:33:40;4.65;;;2.58;;
75639;SDS011;64233;51.486;6.332;2023-04-26T08:36:06;3.65;;;2.05;;
75639;SDS011;64233;51.486;6.332;2023-04-26T08:38:31;4.10;;;2.30;;
75639;SDS011;64233;51.486;6.332;2023-04-26T08:40:57;3.40;;;1.83;;
75639;SDS011;64233;51.486;6.332;2023-04-26T08:43:25;4.55;;;1.77;;
75639;SDS011;64233;51.486;6.332;2023-04-26T08:45:52;3.60;;;1.77;;
75639;SDS011;64233;51.486;6.332;2023-04-26T08:48:19;10.93;;;2.67;;
75639;SDS011;64233;51.486;6.332;2023-04-26T08:50:45;9.30;;;2.63;;
75639;SDS011;64233;51.486;6.332;2023-04-26T08:53:15;15.80;;;2.22;;
75639;SDS011;64233;51.486;6.332;2023-04-26T08:55:47;3.85;;;1.80;;
75639;SDS011;64233;51.486;6.332;2023-04-26T08:58:13;6.90;;;2.35;;
75639;SDS011;64233;51.486;6.332;2023-04-26T09:00:39;7.45;;;2.30;;
75639;SDS011;64233;51.486;6.332;2023-04-26T09:03:07;2.45;;;1.90;;
75639;SDS011;64233;51.486;6.332;2023-04-26T09:05:33;2.05;;;1.60;;
75639;SDS011;64233;51.486;6.332;2023-04-26T09:07:59;6.28;;;2.28;;
75639;SDS011;64233;51.486;6.332;2023-04-26T09:10:28;2.85;;;1.30;;
75639;SDS011;64233;51.486;6.332;2023-04-26T09:12:56;5.30;;;1.25;;
75639;SDS011;64233;51.486;6.332;2023-04-26T09:15:21;3.15;;;1.30;;
75639;SDS011;64233;51.486;6.332;2023-04-26T09:17:48;3.20;;;1.50;;
75639;SDS011;64233;51.486;6.332;2023-04-26T09:20:25;2.97;;;1.60;;
75639;SDS011;64233;51.486;6.332;2023-04-26T09:22:52;5.80;;;1.73;;
75639;SDS011;64233;51.486;6.332;2023-04-26T09:27:54;3.17;;;1.80;;
75639;SDS011;64233;51.486;6.332;2023-04-26T09:30:19;6.63;;;2.10;;
75639;SDS011;64233;51.486;6.332;2023-04-26T09:32:45;5.18;;;1.70;;
75639;SDS011;64233;51.486;6.332;2023-04-26T09:35:26;2.65;;;1.30;;
75639;SDS011;64233;51.486;6.332;2023-04-26T09:40:28;3.85;;;1.92;;
75639;SDS011;64233;51.486;6.332;2023-04-26T09:42:56;2.47;;;1.75;;
75639;SDS011;64233;51.486;6.332;2023-04-26T09:45:37;4.20;;;1.98;;
75639;SDS011;64233;51.486;6.332;2023-04-26T09:50:46;3.30;;;2.47;;
75639;SDS011;64233;51.486;6.332;2023-04-26T09:53:29;8.18;;;2.03;;
75639;SDS011;64233;51.486;6.332;2023-04-26T09:59:00;4.20;;;1.90;;
75639;SDS011;64233;51.486;6.332;2023-04-26T10:01:27;3.92;;;1.40;;
75639;SDS011;64233;51.486;6.332;2023-04-26T10:03:56;5.38;;;1.55;;
75639;SDS011;64233;51.486;6.332;2023-04-26T10:06:26;3.65;;;1.60;;
75639;SDS011;64233;51.486;6.332;2023-04-26T10:08:52;2.75;;;1.60;;
75639;SDS011;64233;51.486;6.332;2023-04-26T10:11:18;16.40;;;2.05;;
75639;SDS011;64233;51.486;6.332;2023-04-26T10:13:44;2.42;;;1.73;;
75639;SDS011;64233;51.486;6.332;2023-04-26T10:16:10;3.75;;;1.83;;
75639;SDS011;64233;51.486;6.332;2023-04-26T10:18:35;5.03;;;1.88;;
75639;SDS011;64233;51.486;6.332;2023-04-26T10:21:03;3.35;;;1.88;;
75639;SDS011;64233;51.486;6.332;2023-04-26T10:23:32;5.90;;;2.75;;
75639;SDS011;64233;51.486;6.332;2023-04-26T10:25:58;4.30;;;1.83;;
75639;SDS011;64233;51.486;6.332;2023-04-26T10:31:21;5.63;;;2.47;;
75639;SDS011;64233;51.486;6.332;2023-04-26T10:34:09;5.97;;;2.42;;
75639;SDS011;64233;51.486;6.332;2023-04-26T10:37:06;7.68;;;3.25;;
75639;SDS011;64233;51.486;6.332;2023-04-26T10:39:39;8.75;;;3.25;;
75639;SDS011;64233;51.486;6.332;2023-04-26T10:42:24;2.75;;;2.13;;
75639;SDS011;64233;51.486;6.332;2023-04-26T10:44:51;8.38;;;2.75;;
75639;SDS011;64233;51.486;6.332;2023-04-26T10:47:25;5.35;;;2.47;;
75639;SDS011;64233;51.486;6.332;2023-04-26T10:49:51;5.28;;;2.75;;
75639;SDS011;64233;51.486;6.332;2023-04-26T10:52:17;3.67;;;2.28;;
75639;SDS011;64233;51.486;6.332;2023-04-26T10:54:48;3.88;;;2.60;;
75639;SDS011;64233;51.486;6.332;2023-04-26T10:57:21;4.60;;;2.55;;
75639;SDS011;64233;51.486;6.332;2023-04-26T11:05:16;4.47;;;2.53;;
75639;SDS011;64233;51.486;6.332;2023-04-26T11:13:30;8.40;;;3.70;;
75639;SDS011;64233;51.486;6.332;2023-04-26T11:16:00;6.70;;;2.67;;
75639;SDS011;64233;51.486;6.332;2023-04-26T11:18:28;6.00;;;2.67;;
75639;SDS011;64233;51.486;6.332;2023-04-26T11:20:53;5.93;;;2.97;;
75639;SDS011;64233;51.486;6.332;2023-04-26T11:23:19;5.97;;;2.65;;
75639;SDS011;64233;51.486;6.332;2023-04-26T11:25:44;6.05;;;2.53;;
75639;SDS011;64233;51.486;6.332;2023-04-26T11:28:10;4.55;;;2.38;;
75639;SDS011;64233;51.486;6.332;2023-04-26T11:30:35;6.57;;;2.20;;
75639;SDS011;64233;51.486;6.332;2023-04-26T11:33:01;4.68;;;2.60;;
75639;SDS011;64233;51.486;6.332;2023-04-26T11:35:37;7.95;;;3.55;;
75639;SDS011;64233;51.486;6.332;2023-04-26T11:38:03;5.30;;;2.90;;
75639;SDS011;64233;51.486;6.332;2023-04-26T11:40:32;6.93;;;2.67;;
75639;SDS011;64233;51.486;6.332;2023-04-26T11:42:58;3.55;;;2.70;;
75639;SDS011;64233;51.486;6.332;2023-04-26T11:45:29;5.85;;;2.97;;
75639;SDS011;64233;51.486;6.332;2023-04-26T11:47:56;5.15;;;2.83;;
75639;SDS011;64233;51.486;6.332;2023-04-26T11:50:22;3.80;;;2.35;;
75639;SDS011;64233;51.486;6.332;2023-04-26T11:52:50;2.85;;;2.50;;
75639;SDS011;64233;51.486;6.332;2023-04-26T11:55:22;8.55;;;3.10;;
75639;SDS011;64233;51.486;6.332;2023-04-26T11:57:51;6.93;;;2.83;;
75639;SDS011;64233;51.486;6.332;2023-04-26T12:00:17;5.55;;;2.47;;
75639;SDS011;64233;51.486;6.332;2023-04-26T12:02:43;6.38;;;2.53;;
75639;SDS011;64233;51.486;6.332;2023-04-26T12:05:10;4.90;;;2.58;;
75639;SDS011;64233;51.486;6.332;2023-04-26T12:07:35;3.45;;;2.15;;
75639;SDS011;64233;51.486;6.332;2023-04-26T12:10:14;3.58;;;2.53;;
75639;SDS011;64233;51.486;6.332;2023-04-26T12:12:46;6.55;;;2.40;;
75639;SDS011;64233;51.486;6.332;2023-04-26T12:15:13;5.00;;;2.60;;
75639;SDS011;64233;51.486;6.332;2023-04-26T12:17:38;4.30;;;2.58;;
75639;SDS011;64233;51.486;6.332;2023-04-26T12:20:10;4.18;;;2.67;;
75639;SDS011;64233;51.486;6.332;2023-04-26T12:22:36;7.45;;;2.20;;
75639;SDS011;64233;51.486;6.332;2023-04-26T12:25:04;5.65;;;2.75;;
75639;SDS011;64233;51.486;6.332;2023-04-26T12:27:31;2.97;;;2.42;;
75639;SDS011;64233;51.486;6.332;2023-04-26T12:29:56;5.45;;;2.78;;
75639;SDS011;64233;51.486;6.332;2023-04-26T12:32:21;3.53;;;2.25;;
75639;SDS011;64233;51.486;6.332;2023-04-26T12:34:47;4.82;;;2.55;;
75639;SDS011;64233;51.486;6.332;2023-04-26T12:37:12;3.95;;;2.50;;
75639;SDS011;64233;51.486;6.332;2023-04-26T12:39:38;5.50;;;3.03;;
75639;SDS011;64233;51.486;6.332;2023-04-26T12:42:03;5.35;;;2.38;;
75639;SDS011;64233;51.486;6.332;2023-04-26T12:44:28;9.25;;;2.65;;
75639;SDS011;64233;51.486;6.332;2023-04-26T12:46:54;5.57;;;2.42;;
75639;SDS011;64233;51.486;6.332;2023-04-26T12:49:19;3.55;;;2.17;;
75639;SDS011;64233;51.486;6.332;2023-04-26T12:51:45;3.90;;;2.53;;
75639;SDS011;64233;51.486;6.332;2023-04-26T12:54:10;5.25;;;2.17;;
75639;SDS011;64233;51.486;6.332;2023-04-26T12:56:36;4.85;;;2.35;;
75639;SDS011;64233;51.486;6.332;2023-04-26T12:59:07;3.15;;;2.30;;
75639;SDS011;64233;51.486;6.332;2023-04-26T13:01:33;6.25;;;2.55;;
75639;SDS011;64233;51.486;6.332;2023-04-26T13:03:58;5.00;;;3.28;;
75639;SDS011;64233;51.486;6.332;2023-04-26T13:06:24;3.80;;;2.40;;
75639;SDS011;64233;51.486;6.332;2023-04-26T13:08:51;8.18;;;2.58;;
75639;SDS011;64233;51.486;6.332;2023-04-26T13:11:17;5.93;;;2.78;;
75639;SDS011;64233;51.486;6.332;2023-04-26T13:13:42;3.53;;;2.35;;
75639;SDS011;64233;51.486;6.332;2023-04-26T13:16:07;4.40;;;2.20;;
75639;SDS011;64233;51.486;6.332;2023-04-26T13:18:33;3.97;;;2.45;;
75639;SDS011;64233;51.486;6.332;2023-04-26T13:20:58;6.32;;;3.10;;
75639;SDS011;64233;51.486;6.332;2023-04-26T13:23:23;6.72;;;2.58;;
75639;SDS011;64233;51.486;6.332;2023-04-26T13:25:48;2.92;;;1.83;;
75639;SDS011;64233;51.486;6.332;2023-04-26T13:28:14;5.90;;;3.05;;
75639;SDS011;64233;51.486;6.332;2023-04-26T13:30:39;3.63;;;2.20;;
75639;SDS011;64233;51.486;6.332;2023-04-26T13:33:04;3.22;;;2.00;;
75639;SDS011;64233;51.486;6.332;2023-04-26T13:35:30;6.22;;;2.30;;
75639;SDS011;64233;51.486;6.332;2023-04-26T13:37:55;5.75;;;2.95;;
75639;SDS011;64233;51.486;6.332;2023-04-26T13:40:20;8.05;;;2.67;;
75639;SDS011;64233;51.486;6.332;2023-04-26T13:42:46;6.72;;;2.60;;
75639;SDS011;64233;51.486;6.332;2023-04-26T13:45:12;5.38;;;2.70;;
75639;SDS011;64233;51.486;6.332;2023-04-26T13:47:37;3.63;;;2.17;;
75639;SDS011;64233;51.486;6.332;2023-04-26T13:50:02;4.07;;;2.80;;
75639;SDS011;64233;51.486;6.332;2023-04-26T13:52:28;2.83;;;2.40;;
75639;SDS011;64233;51.486;6.332;2023-04-26T13:54:53;6.82;;;2.33;;
75639;SDS011;64233;51.486;6.332;2023-04-26T13:57:19;6.60;;;2.17;;
75639;SDS011;64233;51.486;6.332;2023-04-26T13:59:45;4.78;;;2.53;;
75639;SDS011;64233;51.486;6.332;2023-04-26T14:02:11;5.22;;;3.08;;
75639;SDS011;64233;51.486;6.332;2023-04-26T14:04:38;4.82;;;2.42;;
75639;SDS011;64233;51.486;6.332;2023-04-26T14:07:04;7.35;;;2.70;;
75639;SDS011;64233;51.486;6.332;2023-04-26T14:09:30;3.92;;;2.72;;
75639;SDS011;64233;51.486;6.332;2023-04-26T14:11:55;5.95;;;2.15;;
75639;SDS011;64233;51.486;6.332;2023-04-26T14:14:21;2.72;;;2.05;;
75639;SDS011;64233;51.486;6.332;2023-04-26T14:16:46;4.82;;;2.13;;
75639;SDS011;64233;51.486;6.332;2023-04-26T14:19:11;4.25;;;2.17;;
75639;SDS011;64233;51.486;6.332;2023-04-26T14:21:39;9.85;;;3.25;;
75639;SDS011;64233;51.486;6.332;2023-04-26T14:24:05;4.60;;;2.70;;
75639;SDS011;64233;51.486;6.332;2023-04-26T14:26:30;3.60;;;2.45;;
75639;SDS011;64233;51.486;6.332;2023-04-26T14:28:57;4.10;;;2.20;;
75639;SDS011;64233;51.486;6.332;2023-04-26T14:31:23;2.92;;;2.53;;
75639;SDS011;64233;51.486;6.332;2023-04-26T14:33:50;3.83;;;2.70;;
75639;SDS011;64233;51.486;6.332;2023-04-26T14:36:15;6.93;;;2.67;;
75639;SDS011;64233;51.486;6.332;2023-04-26T14:38:41;6.03;;;2.75;;
75639;SDS011;64233;51.486;6.332;2023-04-26T14:41:07;4.63;;;2.88;;
75639;SDS011;64233;51.486;6.332;2023-04-26T14:43:33;3.22;;;2.08;;
75639;SDS011;64233;51.486;6.332;2023-04-26T14:45:58;4.35;;;2.75;;
75639;SDS011;64233;51.486;6.332;2023-04-26T14:48:23;6.97;;;3.05;;
75639;SDS011;64233;51.486;6.332;2023-04-26T14:50:48;8.40;;;3.38;;
75639;SDS011;64233;51.486;6.332;2023-04-26T14:53:14;4.07;;;2.63;;
75639;SDS011;64233;51.486;6.332;2023-04-26T14:55:39;3.85;;;2.33;;
75639;SDS011;64233;51.486;6.332;2023-04-26T14:58:05;3.92;;;2.40;;
75639;SDS011;64233;51.486;6.332;2023-04-26T15:00:30;3.58;;;2.35;;
75639;SDS011;64233;51.486;6.332;2023-04-26T15:02:55;4.63;;;2.30;;